sensor_id;sensor_type;location;lat;lon;timestamp;temperature;humidity
13521;DHT22;6832;51.186;3.236;2024-03-23T00:53:27;12.60;65.30
13521;DHT22;6832;51.186;3.236;2024-03-23T00:55:53;12.50;65.20
13521;DHT22;6832;51.186;3.236;2024-03-23T00:58:20;12.60;65.30
13521;DHT22;6832;51.186;3.236;2024-03-23T01:00:45;12.50;65.20
13521;DHT22;6832;51.186;3.236;2024-03-23T01:03:12;12.40;65.10
13521;DHT22;6832;51.186;3.236;2024-03-23T01:05:38;12.40;65.10
13521;DHT22;6832;51.186;3.236;2024-03-23T01:08:06;12.40;65.10
13521;DHT22;6832;51.186;3.236;2024-03-23T01:10:33;12.40;65.10
13521;DHT22;6832;51.186;3.236;2024-03-23T01:13:00;12.30;65.00
13521;DHT22;6832;51.186;3.236;2024-03-23T01:15:26;12.30;65.10
13521;DHT22;6832;51.186;3.236;2024-03-23T01:17:53;12.20;64.80
13521;DHT22;6832;51.186;3.236;2024-03-23T01:20:19;12.20;64.90
13521;DHT22;6832;51.186;3.236;2024-03-23T01:22:46;12.20;64.90
13521;DHT22;6832;51.186;3.236;2024-03-23T01:25:12;12.10;64.70
13521;DHT22;6832;51.186;3.236;2024-03-23T01:27:40;12.00;64.70
13521;DHT22;6832;51.186;3.236;2024-03-23T01:30:07;12.00;64.60
13521;DHT22;6832;51.186;3.236;2024-03-23T01:32:34;12.00;64.60
13521;DHT22;6832;51.186;3.236;2024-03-23T01:35:00;12.00;64.70
13521;DHT22;6832;51.186;3.236;2024-03-23T01:37:27;11.90;64.60
13521;DHT22;6832;51.186;3.236;2024-03-23T01:39:53;11.90;64.50
13521;DHT22;6832;51.186;3.236;2024-03-23T01:42:20;11.80;65.40
13521;DHT22;6832;51.186;3.236;2024-03-23T01:44:47;11.80;64.60
13521;DHT22;6832;51.186;3.236;2024-03-23T01:47:15;11.80;64.60
13521;DHT22;6832;51.186;3.236;2024-03-23T01:49:40;11.70;64.60
13521;DHT22;6832;51.186;3.236;2024-03-23T01:52:07;11.70;64.70
13521;DHT22;6832;51.186;3.236;2024-03-23T01:54:34;11.60;64.60
13521;DHT22;6832;51.186;3.236;2024-03-23T01:57:01;11.60;64.70
13521;DHT22;6832;51.186;3.236;2024-03-23T01:59:27;11.60;64.70
13521;DHT22;6832;51.186;3.236;2024-03-23T02:01:55;11.60;65.50
13521;DHT22;6832;51.186;3.236;2024-03-23T02:04:21;11.50;64.60
13521;DHT22;6832;51.186;3.236;2024-03-23T02:06:48;11.50;64.60
13521;DHT22;6832;51.186;3.236;2024-03-23T02:09:14;11.50;64.60
13521;DHT22;6832;51.186;3.236;2024-03-23T02:11:41;11.40;64.50
13521;DHT22;6832;51.186;3.236;2024-03-23T02:14:07;11.40;64.50
13521;DHT22;6832;51.186;3.236;2024-03-23T02:16:34;11.40;64.50
13521;DHT22;6832;51.186;3.236;2024-03-23T02:19:01;11.40;64.50
13521;DHT22;6832;51.186;3.236;2024-03-23T02:21:28;11.40;64.60
13521;DHT22;6832;51.186;3.236;2024-03-23T02:23:59;11.30;64.50
13521;DHT22;6832;51.186;3.236;2024-03-23T02:26:26;11.30;64.40
13521;DHT22;6832;51.186;3.236;2024-03-23T02:28:52;11.30;64.50
13521;DHT22;6832;51.186;3.236;2024-03-23T02:31:18;11.20;64.40
13521;DHT22;6832;51.186;3.236;2024-03-23T02:33:44;11.20;64.30
13521;DHT22;6832;51.186;3.236;2024-03-23T02:36:11;11.10;64.40
13521;DHT22;6832;51.186;3.236;2024-03-23T02:38:37;11.10;64.40
13521;DHT22;6832;51.186;3.236;2024-03-23T02:41:05;11.10;64.40
13521;DHT22;6832;51.186;3.236;2024-03-23T02:43:31;11.10;64.30
13521;DHT22;6832;51.186;3.236;2024-03-23T02:45:58;11.00;64.20
13521;DHT22;6832;51.186;3.236;2024-03-23T02:48:24;11.00;64.10
13521;DHT22;6832;51.186;3.236;2024-03-23T02:50:51;11.00;64.10
13521;DHT22;6832;51.186;3.236;2024-03-23T02:53:17;11.00;64.10
13521;DHT22;6832;51.186;3.236;2024-03-23T02:55:44;11.00;64.10
13521;DHT22;6832;51.186;3.236;2024-03-23T02:58:12;10.90;64.70
13521;DHT22;6832;51.186;3.236;2024-03-23T03:00:39;10.90;64.00
13521;DHT22;6832;51.186;3.236;2024-03-23T03:03:05;10.90;64.00
13521;DHT22;6832;51.186;3.236;2024-03-23T03:05:32;10.90;64.70
13521;DHT22;6832;51.186;3.236;2024-03-23T03:07:58;10.80;63.80
13521;DHT22;6832;51.186;3.236;2024-03-23T03:10:25;10.80;63.90
13521;DHT22;6832;51.186;3.236;2024-03-23T03:12:51;10.80;64.20
13521;DHT22;6832;51.186;3.236;2024-03-23T03:15:19;10.70;64.30
13521;DHT22;6832;51.186;3.236;2024-03-23T03:17:45;10.70;64.20
13521;DHT22;6832;51.186;3.236;2024-03-23T03:20:12;10.70;64.30
13521;DHT22;6832;51.186;3.236;2024-03-23T03:22:39;10.70;64.40
13521;DHT22;6832;51.186;3.236;2024-03-23T03:25:06;10.70;64.60
13521;DHT22;6832;51.186;3.236;2024-03-23T03:27:33;10.70;64.70
13521;DHT22;6832;51.186;3.236;2024-03-23T03:30:00;10.60;64.60
13521;DHT22;6832;51.186;3.236;2024-03-23T03:32:29;10.70;64.90
13521;DHT22;6832;51.186;3.236;2024-03-23T03:34:56;10.70;65.20
13521;DHT22;6832;51.186;3.236;2024-03-23T03:37:22;10.70;65.30
13521;DHT22;6832;51.186;3.236;2024-03-23T03:39:49;10.70;65.30
13521;DHT22;6832;51.186;3.236;2024-03-23T03:42:15;10.70;65.40
13521;DHT22;6832;51.186;3.236;2024-03-23T03:44:42;10.70;65.40
13521;DHT22;6832;51.186;3.236;2024-03-23T03:47:08;10.70;65.40
13521;DHT22;6832;51.186;3.236;2024-03-23T03:49:36;10.70;65.40
13521;DHT22;6832;51.186;3.236;2024-03-23T03:52:02;10.70;65.30
13521;DHT22;6832;51.186;3.236;2024-03-23T03:54:30;10.80;65.40
13521;DHT22;6832;51.186;3.236;2024-03-23T03:56:55;10.80;65.40
13521;DHT22;6832;51.186;3.236;2024-03-23T03:59:22;10.80;65.40
13521;DHT22;6832;51.186;3.236;2024-03-23T04:01:48;10.90;65.40
13521;DHT22;6832;51.186;3.236;2024-03-23T04:04:15;10.90;65.40
13521;DHT22;6832;51.186;3.236;2024-03-23T04:06:43;10.90;65.50
13521;DHT22;6832;51.186;3.236;2024-03-23T04:09:10;10.90;65.60
13521;DHT22;6832;51.186;3.236;2024-03-23T04:11:36;10.90;65.60
13521;DHT22;6832;51.186;3.236;2024-03-23T04:14:03;11.00;65.70
13521;DHT22;6832;51.186;3.236;2024-03-23T04:16:31;11.00;65.50
13521;DHT22;6832;51.186;3.236;2024-03-23T04:18:58;11.00;65.50
13521;DHT22;6832;51.186;3.236;2024-03-23T04:21:24;11.00;65.50
13521;DHT22;6832;51.186;3.236;2024-03-23T04:23:53;11.00;65.40
13521;DHT22;6832;51.186;3.236;2024-03-23T04:26:19;11.00;65.30
13521;DHT22;6832;51.186;3.236;2024-03-23T04:28:45;11.00;65.30
13521;DHT22;6832;51.186;3.236;2024-03-23T04:31:12;11.00;65.10
13521;DHT22;6832;51.186;3.236;2024-03-23T04:33:39;11.10;65.10
13521;DHT22;6832;51.186;3.236;2024-03-23T04:36:05;11.10;64.80
13521;DHT22;6832;51.186;3.236;2024-03-23T04:38:32;11.10;65.00
13521;DHT22;6832;51.186;3.236;2024-03-23T04:41:01;11.10;65.10
13521;DHT22;6832;51.186;3.236;2024-03-23T04:43:28;11.10;65.00
13521;DHT22;6832;51.186;3.236;2024-03-23T04:45:55;11.10;64.90
13521;DHT22;6832;51.186;3.236;2024-03-23T04:48:22;11.10;64.80
13521;DHT22;6832;51.186;3.236;2024-03-23T04:50:54;11.10;65.00
13521;DHT22;6832;51.186;3.236;2024-03-23T04:53:21;11.10;64.90
13521;DHT22;6832;51.186;3.236;2024-03-23T04:55:48;11.10;64.80
13521;DHT22;6832;51.186;3.236;2024-03-23T04:58:16;11.10;64.70
13521;DHT22;6832;51.186;3.236;2024-03-23T05:00:42;11.10;64.50
13521;DHT22;6832;51.186;3.236;2024-03-23T05:03:09;11.10;64.30
13521;DHT22;6832;51.186;3.236;2024-03-23T05:05:35;11.10;64.30
13521;DHT22;6832;51.186;3.236;2024-03-23T05:08:02;11.10;64.20
13521;DHT22;6832;51.186;3.236;2024-03-23T05:10:28;11.00;64.10
13521;DHT22;6832;51.186;3.236;2024-03-23T05:12:55;11.10;64.30
13521;DHT22;6832;51.186;3.236;2024-03-23T05:15:23;11.10;64.40
13521;DHT22;6832;51.186;3.236;2024-03-23T05:17:50;11.10;64.30
13521;DHT22;6832;51.186;3.236;2024-03-23T05:20:16;11.10;64.20
13521;DHT22;6832;51.186;3.236;2024-03-23T05:22:43;11.10;64.20
13521;DHT22;6832;51.186;3.236;2024-03-23T05:25:09;11.10;64.20
13521;DHT22;6832;51.186;3.236;2024-03-23T05:27:37;11.10;64.00
13521;DHT22;6832;51.186;3.236;2024-03-23T05:30:03;11.10;63.90
13521;DHT22;6832;51.186;3.236;2024-03-23T05:32:32;11.10;63.70
13521;DHT22;6832;51.186;3.236;2024-03-23T05:34:58;11.10;63.70
13521;DHT22;6832;51.186;3.236;2024-03-23T05:37:25;11.20;63.80
13521;DHT22;6832;51.186;3.236;2024-03-23T05:39:51;11.20;63.80
13521;DHT22;6832;51.186;3.236;2024-03-23T05:42:18;11.20;64.50
13521;DHT22;6832;51.186;3.236;2024-03-23T05:44:44;11.20;63.60
13521;DHT22;6832;51.186;3.236;2024-03-23T05:47:12;11.20;63.60
13521;DHT22;6832;51.186;3.236;2024-03-23T05:49:40;11.20;63.70
13521;DHT22;6832;51.186;3.236;2024-03-23T05:52:08;11.10;63.60
13521;DHT22;6832;51.186;3.236;2024-03-23T05:54:34;11.20;63.60
13521;DHT22;6832;51.186;3.236;2024-03-23T05:57:01;11.20;63.60
13521;DHT22;6832;51.186;3.236;2024-03-23T05:59:27;11.20;63.50
13521;DHT22;6832;51.186;3.236;2024-03-23T06:01:54;11.10;63.40
13521;DHT22;6832;51.186;3.236;2024-03-23T06:04:20;11.20;63.50
13521;DHT22;6832;51.186;3.236;2024-03-23T06:06:51;11.10;63.50
13521;DHT22;6832;51.186;3.236;2024-03-23T06:09:17;11.10;63.70
13521;DHT22;6832;51.186;3.236;2024-03-23T06:11:45;11.10;64.40
13521;DHT22;6832;51.186;3.236;2024-03-23T06:14:11;11.10;63.70
13521;DHT22;6832;51.186;3.236;2024-03-23T06:16:38;11.10;63.70
13521;DHT22;6832;51.186;3.236;2024-03-23T06:19:03;11.10;63.70
13521;DHT22;6832;51.186;3.236;2024-03-23T06:21:32;11.10;63.70
13521;DHT22;6832;51.186;3.236;2024-03-23T06:24:00;11.10;63.70
13521;DHT22;6832;51.186;3.236;2024-03-23T06:26:26;11.20;63.80
13521;DHT22;6832;51.186;3.236;2024-03-23T06:28:52;11.10;63.60
13521;DHT22;6832;51.186;3.236;2024-03-23T06:31:19;11.20;64.40
13521;DHT22;6832;51.186;3.236;2024-03-23T06:33:45;11.20;63.80
13521;DHT22;6832;51.186;3.236;2024-03-23T06:36:12;11.20;63.80
13521;DHT22;6832;51.186;3.236;2024-03-23T06:38:38;11.20;63.80
13521;DHT22;6832;51.186;3.236;2024-03-23T06:41:08;11.20;64.40
13521;DHT22;6832;51.186;3.236;2024-03-23T06:43:34;11.20;63.50
13521;DHT22;6832;51.186;3.236;2024-03-23T06:46:02;11.20;63.40
13521;DHT22;6832;51.186;3.236;2024-03-23T06:48:29;11.30;63.20
13521;DHT22;6832;51.186;3.236;2024-03-23T06:50:57;11.30;63.10
13521;DHT22;6832;51.186;3.236;2024-03-23T06:53:23;11.30;63.10
13521;DHT22;6832;51.186;3.236;2024-03-23T06:55:51;11.30;63.10
13521;DHT22;6832;51.186;3.236;2024-03-23T06:58:19;11.30;63.10
13521;DHT22;6832;51.186;3.236;2024-03-23T07:00:46;11.30;62.70
13521;DHT22;6832;51.186;3.236;2024-03-23T07:03:12;11.40;62.70
13521;DHT22;6832;51.186;3.236;2024-03-23T07:05:39;11.40;62.30
13521;DHT22;6832;51.186;3.236;2024-03-23T07:08:05;11.40;62.10
13521;DHT22;6832;51.186;3.236;2024-03-23T07:10:32;11.30;62.10
13521;DHT22;6832;51.186;3.236;2024-03-23T07:12:58;11.40;62.20
13521;DHT22;6832;51.186;3.236;2024-03-23T07:15:27;11.40;62.10
13521;DHT22;6832;51.186;3.236;2024-03-23T07:17:53;11.40;62.00
13521;DHT22;6832;51.186;3.236;2024-03-23T07:20:20;11.40;61.90
13521;DHT22;6832;51.186;3.236;2024-03-23T07:22:46;11.40;61.70
13521;DHT22;6832;51.186;3.236;2024-03-23T07:25:14;11.40;61.70
13521;DHT22;6832;51.186;3.236;2024-03-23T07:27:40;11.40;62.40
13521;DHT22;6832;51.186;3.236;2024-03-23T07:30:07;11.50;61.70
13521;DHT22;6832;51.186;3.236;2024-03-23T07:32:35;11.50;61.60
13521;DHT22;6832;51.186;3.236;2024-03-23T07:35:03;11.50;61.40
13521;DHT22;6832;51.186;3.236;2024-03-23T07:37:29;11.50;61.40
13521;DHT22;6832;51.186;3.236;2024-03-23T07:39:56;11.60;61.70
13521;DHT22;6832;51.186;3.236;2024-03-23T07:42:23;11.60;61.60
13521;DHT22;6832;51.186;3.236;2024-03-23T07:44:52;11.60;61.00
13521;DHT22;6832;51.186;3.236;2024-03-23T07:47:19;11.70;61.20
13521;DHT22;6832;51.186;3.236;2024-03-23T07:49:47;11.70;61.20
13521;DHT22;6832;51.186;3.236;2024-03-23T07:52:13;11.70;61.00
13521;DHT22;6832;51.186;3.236;2024-03-23T07:54:40;11.80;61.30
13521;DHT22;6832;51.186;3.236;2024-03-23T07:57:06;11.80;61.50
13521;DHT22;6832;51.186;3.236;2024-03-23T07:59:33;11.90;61.60
13521;DHT22;6832;51.186;3.236;2024-03-23T08:01:59;11.90;61.50
13521;DHT22;6832;51.186;3.236;2024-03-23T08:04:27;11.90;61.60
13521;DHT22;6832;51.186;3.236;2024-03-23T08:06:55;11.90;61.60
13521;DHT22;6832;51.186;3.236;2024-03-23T08:09:22;11.90;61.70
13521;DHT22;6832;51.186;3.236;2024-03-23T08:11:48;11.90;61.80
13521;DHT22;6832;51.186;3.236;2024-03-23T08:14:15;11.90;62.10
13521;DHT22;6832;51.186;3.236;2024-03-23T08:16:41;11.90;62.70
13521;DHT22;6832;51.186;3.236;2024-03-23T08:19:14;11.80;62.70
13521;DHT22;6832;51.186;3.236;2024-03-23T08:21:40;11.90;63.20
13521;DHT22;6832;51.186;3.236;2024-03-23T08:24:08;11.90;64.10
13521;DHT22;6832;51.186;3.236;2024-03-23T08:26:34;12.00;62.90
13521;DHT22;6832;51.186;3.236;2024-03-23T08:29:03;12.00;62.70
13521;DHT22;6832;51.186;3.236;2024-03-23T08:31:29;12.00;62.20
13521;DHT22;6832;51.186;3.236;2024-03-23T08:33:56;12.10;62.10
13521;DHT22;6832;51.186;3.236;2024-03-23T08:36:22;12.10;62.30
13521;DHT22;6832;51.186;3.236;2024-03-23T08:38:49;12.20;62.50
13521;DHT22;6832;51.186;3.236;2024-03-23T08:41:20;12.20;62.20
13521;DHT22;6832;51.186;3.236;2024-03-23T08:43:47;12.30;62.30
13521;DHT22;6832;51.186;3.236;2024-03-23T08:46:14;12.40;62.20
13521;DHT22;6832;51.186;3.236;2024-03-23T08:48:43;12.40;61.90
13521;DHT22;6832;51.186;3.236;2024-03-23T08:51:11;12.40;61.70
13521;DHT22;6832;51.186;3.236;2024-03-23T08:53:39;12.50;61.80
13521;DHT22;6832;51.186;3.236;2024-03-23T08:56:06;12.50;61.30
13521;DHT22;6832;51.186;3.236;2024-03-23T08:58:35;12.60;61.10
13521;DHT22;6832;51.186;3.236;2024-03-23T09:01:04;12.60;60.80
13521;DHT22;6832;51.186;3.236;2024-03-23T09:03:31;12.60;60.30
13521;DHT22;6832;51.186;3.236;2024-03-23T09:05:57;12.70;60.70
13521;DHT22;6832;51.186;3.236;2024-03-23T09:08:24;12.70;60.30
13521;DHT22;6832;51.186;3.236;2024-03-23T09:10:52;12.70;60.30
13521;DHT22;6832;51.186;3.236;2024-03-23T09:13:19;12.80;60.70
13521;DHT22;6832;51.186;3.236;2024-03-23T09:15:48;12.80;59.70
13521;DHT22;6832;51.186;3.236;2024-03-23T09:18:15;12.80;59.60
13521;DHT22;6832;51.186;3.236;2024-03-23T09:20:41;12.80;59.50
13521;DHT22;6832;51.186;3.236;2024-03-23T09:23:08;12.90;60.40
13521;DHT22;6832;51.186;3.236;2024-03-23T09:25:36;12.90;59.80
13521;DHT22;6832;51.186;3.236;2024-03-23T09:28:04;13.00;60.20
13521;DHT22;6832;51.186;3.236;2024-03-23T09:30:31;13.10;59.70
13521;DHT22;6832;51.186;3.236;2024-03-23T09:33:00;13.20;59.50
13521;DHT22;6832;51.186;3.236;2024-03-23T09:35:26;13.30;59.60
13521;DHT22;6832;51.186;3.236;2024-03-23T09:37:53;13.30;59.30
13521;DHT22;6832;51.186;3.236;2024-03-23T09:40:20;13.40;59.30
13521;DHT22;6832;51.186;3.236;2024-03-23T09:42:50;13.40;58.30
13521;DHT22;6832;51.186;3.236;2024-03-23T09:45:17;13.50;58.30
13521;DHT22;6832;51.186;3.236;2024-03-23T09:47:44;13.50;58.70
13521;DHT22;6832;51.186;3.236;2024-03-23T09:50:13;13.50;59.00
13521;DHT22;6832;51.186;3.236;2024-03-23T09:52:40;13.60;58.60
13521;DHT22;6832;51.186;3.236;2024-03-23T09:55:08;13.60;58.10
13521;DHT22;6832;51.186;3.236;2024-03-23T09:57:35;13.70;58.00
13521;DHT22;6832;51.186;3.236;2024-03-23T10:00:01;13.70;57.80
13521;DHT22;6832;51.186;3.236;2024-03-23T10:02:29;13.70;57.80
13521;DHT22;6832;51.186;3.236;2024-03-23T10:04:55;13.80;57.90
13521;DHT22;6832;51.186;3.236;2024-03-23T10:07:25;13.80;57.90
13521;DHT22;6832;51.186;3.236;2024-03-23T10:09:51;13.80;57.30
13521;DHT22;6832;51.186;3.236;2024-03-23T10:12:20;13.90;57.30
13521;DHT22;6832;51.186;3.236;2024-03-23T10:14:46;14.00;57.30
13521;DHT22;6832;51.186;3.236;2024-03-23T10:17:14;14.00;56.70
13521;DHT22;6832;51.186;3.236;2024-03-23T10:19:41;14.00;56.60
13521;DHT22;6832;51.186;3.236;2024-03-23T10:22:09;14.00;56.70
13521;DHT22;6832;51.186;3.236;2024-03-23T10:24:37;14.00;56.30
13521;DHT22;6832;51.186;3.236;2024-03-23T10:27:04;13.90;55.90
13521;DHT22;6832;51.186;3.236;2024-03-23T10:29:30;13.90;55.60
13521;DHT22;6832;51.186;3.236;2024-03-23T10:32:07;13.90;55.80
13521;DHT22;6832;51.186;3.236;2024-03-23T10:34:34;13.80;56.60
13521;DHT22;6832;51.186;3.236;2024-03-23T10:37:02;13.80;56.00
13521;DHT22;6832;51.186;3.236;2024-03-23T10:39:30;13.80;56.10
13521;DHT22;6832;51.186;3.236;2024-03-23T10:42:00;13.80;55.80
13521;DHT22;6832;51.186;3.236;2024-03-23T10:44:27;13.80;55.70
13521;DHT22;6832;51.186;3.236;2024-03-23T10:46:57;13.80;55.60
13521;DHT22;6832;51.186;3.236;2024-03-23T10:49:25;13.80;55.40
13521;DHT22;6832;51.186;3.236;2024-03-23T10:51:53;13.80;55.40
13521;DHT22;6832;51.186;3.236;2024-03-23T10:54:20;13.80;55.00
13521;DHT22;6832;51.186;3.236;2024-03-23T10:56:49;13.70;55.20
13521;DHT22;6832;51.186;3.236;2024-03-23T10:59:18;13.70;55.20
13521;DHT22;6832;51.186;3.236;2024-03-23T11:01:55;13.60;55.30
13521;DHT22;6832;51.186;3.236;2024-03-23T11:04:31;13.70;55.50
13521;DHT22;6832;51.186;3.236;2024-03-23T11:06:58;13.60;55.30
13521;DHT22;6832;51.186;3.236;2024-03-23T11:09:43;13.60;56.00
13521;DHT22;6832;51.186;3.236;2024-03-23T11:12:30;13.60;54.90
13521;DHT22;6832;51.186;3.236;2024-03-23T11:15:01;13.60;55.30
13521;DHT22;6832;51.186;3.236;2024-03-23T11:17:29;13.50;55.60
13521;DHT22;6832;51.186;3.236;2024-03-23T11:19:57;13.60;54.90
13521;DHT22;6832;51.186;3.236;2024-03-23T11:22:40;13.50;55.40
13521;DHT22;6832;51.186;3.236;2024-03-23T11:25:20;13.60;55.30
13521;DHT22;6832;51.186;3.236;2024-03-23T11:27:48;13.50;54.80
13521;DHT22;6832;51.186;3.236;2024-03-23T11:30:17;13.60;55.70
13521;DHT22;6832;51.186;3.236;2024-03-23T11:32:45;13.60;55.90
13521;DHT22;6832;51.186;3.236;2024-03-23T11:35:25;13.70;56.00
13521;DHT22;6832;51.186;3.236;2024-03-23T11:38:08;13.80;55.80
13521;DHT22;6832;51.186;3.236;2024-03-23T11:40:35;13.80;55.70
13521;DHT22;6832;51.186;3.236;2024-03-23T11:43:03;13.80;56.00
13521;DHT22;6832;51.186;3.236;2024-03-23T11:45:34;13.90;56.00
13521;DHT22;6832;51.186;3.236;2024-03-23T11:48:08;14.00;55.60
13521;DHT22;6832;51.186;3.236;2024-03-23T11:50:36;14.00;55.20
13521;DHT22;6832;51.186;3.236;2024-03-23T11:53:07;14.10;55.20
13521;DHT22;6832;51.186;3.236;2024-03-23T11:55:43;14.10;55.00
13521;DHT22;6832;51.186;3.236;2024-03-23T11:58:10;14.20;54.50
13521;DHT22;6832;51.186;3.236;2024-03-23T12:00:38;14.20;54.50
13521;DHT22;6832;51.186;3.236;2024-03-23T12:03:05;14.10;54.30
13521;DHT22;6832;51.186;3.236;2024-03-23T12:05:32;14.20;54.70
13521;DHT22;6832;51.186;3.236;2024-03-23T12:08:19;14.10;54.90
13521;DHT22;6832;51.186;3.236;2024-03-23T12:10:48;14.00;55.10
13521;DHT22;6832;51.186;3.236;2024-03-23T12:13:20;13.90;55.30
13521;DHT22;6832;51.186;3.236;2024-03-23T12:15:49;13.80;55.30
13521;DHT22;6832;51.186;3.236;2024-03-23T12:18:16;13.70;55.50
13521;DHT22;6832;51.186;3.236;2024-03-23T12:20:42;14.00;55.90
13521;DHT22;6832;51.186;3.236;2024-03-23T12:23:10;13.40;55.50
13521;DHT22;6832;51.186;3.236;2024-03-23T12:25:37;13.30;55.60
13521;DHT22;6832;51.186;3.236;2024-03-23T12:28:05;13.20;56.10
13521;DHT22;6832;51.186;3.236;2024-03-23T12:30:34;13.10;56.60
13521;DHT22;6832;51.186;3.236;2024-03-23T12:33:03;13.10;56.60
13521;DHT22;6832;51.186;3.236;2024-03-23T12:35:29;13.10;57.10
13521;DHT22;6832;51.186;3.236;2024-03-23T12:37:56;13.10;57.40
13521;DHT22;6832;51.186;3.236;2024-03-23T12:40:22;13.10;57.20
13521;DHT22;6832;51.186;3.236;2024-03-23T12:42:49;13.10;56.90
13521;DHT22;6832;51.186;3.236;2024-03-23T12:45:15;13.20;56.70
13521;DHT22;6832;51.186;3.236;2024-03-23T12:47:42;13.20;56.30
13521;DHT22;6832;51.186;3.236;2024-03-23T12:50:10;13.20;56.60
13521;DHT22;6832;51.186;3.236;2024-03-23T12:52:37;13.30;56.40
13521;DHT22;6832;51.186;3.236;2024-03-23T12:55:03;13.20;56.90
13521;DHT22;6832;51.186;3.236;2024-03-23T12:57:31;13.30;56.30
13521;DHT22;6832;51.186;3.236;2024-03-23T12:59:57;13.30;56.20
13521;DHT22;6832;51.186;3.236;2024-03-23T13:02:24;13.40;56.20
13521;DHT22;6832;51.186;3.236;2024-03-23T13:04:51;13.50;56.20
13521;DHT22;6832;51.186;3.236;2024-03-23T13:07:20;13.50;55.70
13521;DHT22;6832;51.186;3.236;2024-03-23T13:09:47;13.60;55.90
13521;DHT22;6832;51.186;3.236;2024-03-23T13:12:16;13.70;55.80
13521;DHT22;6832;51.186;3.236;2024-03-23T13:14:44;13.70;55.70
13521;DHT22;6832;51.186;3.236;2024-03-23T13:17:11;13.70;54.90
13521;DHT22;6832;51.186;3.236;2024-03-23T13:19:37;13.80;55.40
13521;DHT22;6832;51.186;3.236;2024-03-23T13:22:04;13.90;55.20
13521;DHT22;6832;51.186;3.236;2024-03-23T13:24:31;14.00;55.20
13521;DHT22;6832;51.186;3.236;2024-03-23T13:26:58;14.00;54.40
13521;DHT22;6832;51.186;3.236;2024-03-23T13:29:25;14.10;54.60
13521;DHT22;6832;51.186;3.236;2024-03-23T13:31:52;14.20;53.90
13521;DHT22;6832;51.186;3.236;2024-03-23T13:34:19;14.30;54.00
13521;DHT22;6832;51.186;3.236;2024-03-23T13:36:46;14.40;54.30
13521;DHT22;6832;51.186;3.236;2024-03-23T13:39:13;14.40;53.80
13521;DHT22;6832;51.186;3.236;2024-03-23T13:41:43;14.50;52.90
13521;DHT22;6832;51.186;3.236;2024-03-23T13:44:09;14.60;53.40
13521;DHT22;6832;51.186;3.236;2024-03-23T13:46:37;14.60;53.00
13521;DHT22;6832;51.186;3.236;2024-03-23T13:49:03;14.70;52.90
13521;DHT22;6832;51.186;3.236;2024-03-23T13:51:30;14.70;52.60
13521;DHT22;6832;51.186;3.236;2024-03-23T13:53:57;14.80;52.40
13521;DHT22;6832;51.186;3.236;2024-03-23T13:56:26;14.80;51.90
13521;DHT22;6832;51.186;3.236;2024-03-23T13:58:55;14.80;52.50
13521;DHT22;6832;51.186;3.236;2024-03-23T14:01:22;14.80;51.80
13521;DHT22;6832;51.186;3.236;2024-03-23T14:03:48;14.80;52.20
13521;DHT22;6832;51.186;3.236;2024-03-23T14:06:15;14.80;52.40
13521;DHT22;6832;51.186;3.236;2024-03-23T14:08:41;14.80;51.60
13521;DHT22;6832;51.186;3.236;2024-03-23T14:11:09;14.80;51.90
13521;DHT22;6832;51.186;3.236;2024-03-23T14:13:36;14.80;51.50
13521;DHT22;6832;51.186;3.236;2024-03-23T14:16:05;14.70;51.30
13521;DHT22;6832;51.186;3.236;2024-03-23T14:18:31;14.70;51.30
13521;DHT22;6832;51.186;3.236;2024-03-23T14:20:59;14.70;51.40
13521;DHT22;6832;51.186;3.236;2024-03-23T14:23:26;14.70;51.30
13521;DHT22;6832;51.186;3.236;2024-03-23T14:25:53;14.60;51.00
13521;DHT22;6832;51.186;3.236;2024-03-23T14:28:20;14.50;51.20
13521;DHT22;6832;51.186;3.236;2024-03-23T14:30:48;14.40;51.50
13521;DHT22;6832;51.186;3.236;2024-03-23T14:33:15;14.40;51.60
13521;DHT22;6832;51.186;3.236;2024-03-23T14:35:42;14.30;51.90
13521;DHT22;6832;51.186;3.236;2024-03-23T14:38:08;14.20;52.60
13521;DHT22;6832;51.186;3.236;2024-03-23T14:40:35;14.10;53.20
13521;DHT22;6832;51.186;3.236;2024-03-23T14:43:01;14.10;53.80
13521;DHT22;6832;51.186;3.236;2024-03-23T14:45:28;14.00;53.80
13521;DHT22;6832;51.186;3.236;2024-03-23T14:47:54;14.00;53.70
13521;DHT22;6832;51.186;3.236;2024-03-23T14:50:22;14.00;53.70
13521;DHT22;6832;51.186;3.236;2024-03-23T14:52:48;14.00;53.70
13521;DHT22;6832;51.186;3.236;2024-03-23T14:55:16;14.00;53.70
13521;DHT22;6832;51.186;3.236;2024-03-23T14:57:42;14.00;53.90
13521;DHT22;6832;51.186;3.236;2024-03-23T15:00:10;14.00;53.90
13521;DHT22;6832;51.186;3.236;2024-03-23T15:02:37;14.00;53.70
13521;DHT22;6832;51.186;3.236;2024-03-23T15:05:05;14.00;53.70
13521;DHT22;6832;51.186;3.236;2024-03-23T15:07:34;14.00;53.70
13521;DHT22;6832;51.186;3.236;2024-03-23T15:10:01;14.00;53.70
13521;DHT22;6832;51.186;3.236;2024-03-23T15:12:27;14.00;53.80
13521;DHT22;6832;51.186;3.236;2024-03-23T15:14:53;14.00;53.90
13521;DHT22;6832;51.186;3.236;2024-03-23T15:17:19;14.00;53.70
13521;DHT22;6832;51.186;3.236;2024-03-23T15:19:46;14.00;53.70
13521;DHT22;6832;51.186;3.236;2024-03-23T15:22:12;14.00;53.70
13521;DHT22;6832;51.186;3.236;2024-03-23T15:24:41;13.90;53.60
13521;DHT22;6832;51.186;3.236;2024-03-23T15:27:06;13.90;53.30
13521;DHT22;6832;51.186;3.236;2024-03-23T15:29:34;13.90;53.50
13521;DHT22;6832;51.186;3.236;2024-03-23T15:32:02;13.90;53.60
13521;DHT22;6832;51.186;3.236;2024-03-23T15:34:29;13.80;53.00
13521;DHT22;6832;51.186;3.236;2024-03-23T15:36:55;13.70;52.70
13521;DHT22;6832;51.186;3.236;2024-03-23T15:39:22;13.70;52.70
13521;DHT22;6832;51.186;3.236;2024-03-23T15:41:49;13.70;53.00
13521;DHT22;6832;51.186;3.236;2024-03-23T15:44:17;13.60;53.20
13521;DHT22;6832;51.186;3.236;2024-03-23T15:46:43;13.60;53.40
13521;DHT22;6832;51.186;3.236;2024-03-23T15:49:10;13.50;53.80
13521;DHT22;6832;51.186;3.236;2024-03-23T15:51:36;13.40;54.00
13521;DHT22;6832;51.186;3.236;2024-03-23T15:54:05;13.40;54.00
13521;DHT22;6832;51.186;3.236;2024-03-23T15:56:31;13.40;54.10
13521;DHT22;6832;51.186;3.236;2024-03-23T15:58:59;13.30;54.30
13521;DHT22;6832;51.186;3.236;2024-03-23T16:01:31;13.30;54.50
13521;DHT22;6832;51.186;3.236;2024-03-23T16:03:59;13.20;54.50
13521;DHT22;6832;51.186;3.236;2024-03-23T16:06:25;13.20;54.50
13521;DHT22;6832;51.186;3.236;2024-03-23T16:08:52;13.10;54.30
13521;DHT22;6832;51.186;3.236;2024-03-23T16:11:18;13.10;54.20
13521;DHT22;6832;51.186;3.236;2024-03-23T16:13:45;13.10;54.00
13521;DHT22;6832;51.186;3.236;2024-03-23T16:16:13;13.00;53.70
13521;DHT22;6832;51.186;3.236;2024-03-23T16:18:41;13.00;53.50
13521;DHT22;6832;51.186;3.236;2024-03-23T16:21:09;13.00;53.50
13521;DHT22;6832;51.186;3.236;2024-03-23T16:23:36;12.90;53.60
13521;DHT22;6832;51.186;3.236;2024-03-23T16:26:03;12.80;53.90
13521;DHT22;6832;51.186;3.236;2024-03-23T16:28:31;12.80;54.20
13521;DHT22;6832;51.186;3.236;2024-03-23T16:30:58;12.80;54.30
13521;DHT22;6832;51.186;3.236;2024-03-23T16:33:27;12.70;54.70
13521;DHT22;6832;51.186;3.236;2024-03-23T16:35:58;12.70;55.00
13521;DHT22;6832;51.186;3.236;2024-03-23T16:38:25;12.50;55.10